Aviation Digital Data Service (ADDS)

Output produced by METARs form (0332 UTC 24 June 2021)
found at http://aviationweather.gov/metar/data/
 
KOEO 240315Z AUTO 15006KT 10SM CLR 24/18 A2975 RMK AO2 T02400175